sensor_id;sensor_type;location;lat;lon;timestamp;P1;durP1;ratioP1;P2;durP2;ratioP2
71665;SDS011;59503;53.486;10.196;2023-05-08T00:01:45;3.72;;;2.92;;
71665;SDS011;59503;53.486;10.196;2023-05-08T00:04:11;2.97;;;2.30;;
71665;SDS011;59503;53.486;10.196;2023-05-08T00:06:37;4.60;;;2.90;;
71665;SDS011;59503;53.486;10.196;2023-05-08T00:09:02;4.28;;;3.10;;
71665;SDS011;59503;53.486;10.196;2023-05-08T00:11:27;5.57;;;3.20;;
71665;SDS011;59503;53.486;10.196;2023-05-08T00:13:53;4.57;;;3.20;;
71665;SDS011;59503;53.486;10.196;2023-05-08T00:16:18;3.67;;;3.07;;
71665;SDS011;59503;53.486;10.196;2023-05-08T00:18:43;6.03;;;3.03;;
71665;SDS011;59503;53.486;10.196;2023-05-08T00:21:08;4.30;;;2.97;;
71665;SDS011;59503;53.486;10.196;2023-05-08T00:23:34;5.20;;;3.27;;
71665;SDS011;59503;53.486;10.196;2023-05-08T00:25:59;5.43;;;3.22;;
71665;SDS011;59503;53.486;10.196;2023-05-08T00:28:25;5.63;;;3.00;;
71665;SDS011;59503;53.486;10.196;2023-05-08T00:30:50;4.40;;;3.13;;
71665;SDS011;59503;53.486;10.196;2023-05-08T00:33:16;4.45;;;3.10;;
71665;SDS011;59503;53.486;10.196;2023-05-08T00:35:41;6.20;;;3.53;;
71665;SDS011;59503;53.486;10.196;2023-05-08T00:38:07;6.13;;;3.40;;
71665;SDS011;59503;53.486;10.196;2023-05-08T00:40:33;4.88;;;3.45;;
71665;SDS011;59503;53.486;10.196;2023-05-08T00:42:58;5.83;;;3.23;;
71665;SDS011;59503;53.486;10.196;2023-05-08T00:45:23;5.67;;;3.30;;
71665;SDS011;59503;53.486;10.196;2023-05-08T00:47:56;3.55;;;2.95;;
71665;SDS011;59503;53.486;10.196;2023-05-08T00:50:21;4.03;;;2.97;;
71665;SDS011;59503;53.486;10.196;2023-05-08T00:52:46;6.07;;;3.83;;
71665;SDS011;59503;53.486;10.196;2023-05-08T00:55:12;5.93;;;3.20;;
71665;SDS011;59503;53.486;10.196;2023-05-08T00:57:37;4.50;;;3.03;;
71665;SDS011;59503;53.486;10.196;2023-05-08T01:00:03;4.30;;;3.33;;
71665;SDS011;59503;53.486;10.196;2023-05-08T01:02:29;6.32;;;3.65;;
71665;SDS011;59503;53.486;10.196;2023-05-08T01:04:55;5.47;;;3.00;;
71665;SDS011;59503;53.486;10.196;2023-05-08T01:07:21;3.73;;;2.90;;
71665;SDS011;59503;53.486;10.196;2023-05-08T01:09:47;3.60;;;2.97;;
71665;SDS011;59503;53.486;10.196;2023-05-08T01:15:17;4.53;;;2.75;;
71665;SDS011;59503;53.486;10.196;2023-05-08T01:23:17;5.63;;;3.30;;
71665;SDS011;59503;53.486;10.196;2023-05-08T01:34:30;4.13;;;2.93;;
71665;SDS011;59503;53.486;10.196;2023-05-08T01:36:59;5.70;;;3.00;;
71665;SDS011;59503;53.486;10.196;2023-05-08T01:42:11;9.38;;;3.30;;
71665;SDS011;59503;53.486;10.196;2023-05-08T01:44:44;4.25;;;3.13;;
71665;SDS011;59503;53.486;10.196;2023-05-08T01:47:14;4.73;;;3.17;;
71665;SDS011;59503;53.486;10.196;2023-05-08T01:49:42;7.05;;;3.47;;
71665;SDS011;59503;53.486;10.196;2023-05-08T01:52:15;6.07;;;3.40;;
71665;SDS011;59503;53.486;10.196;2023-05-08T01:54:49;4.22;;;3.33;;
71665;SDS011;59503;53.486;10.196;2023-05-08T01:57:21;4.30;;;3.35;;
71665;SDS011;59503;53.486;10.196;2023-05-08T01:59:50;5.00;;;3.30;;
71665;SDS011;59503;53.486;10.196;2023-05-08T02:02:18;5.20;;;3.35;;
71665;SDS011;59503;53.486;10.196;2023-05-08T02:04:44;4.50;;;3.45;;
71665;SDS011;59503;53.486;10.196;2023-05-08T02:07:11;7.50;;;3.50;;
71665;SDS011;59503;53.486;10.196;2023-05-08T02:09:36;4.90;;;3.30;;
71665;SDS011;59503;53.486;10.196;2023-05-08T02:12:05;5.75;;;3.58;;
71665;SDS011;59503;53.486;10.196;2023-05-08T02:14:32;4.85;;;3.72;;
71665;SDS011;59503;53.486;10.196;2023-05-08T02:17:00;5.25;;;3.33;;
71665;SDS011;59503;53.486;10.196;2023-05-08T02:19:27;5.03;;;3.50;;
71665;SDS011;59503;53.486;10.196;2023-05-08T02:21:54;5.10;;;3.40;;
71665;SDS011;59503;53.486;10.196;2023-05-08T02:24:21;5.35;;;3.60;;
71665;SDS011;59503;53.486;10.196;2023-05-08T02:26:48;7.95;;;3.70;;
71665;SDS011;59503;53.486;10.196;2023-05-08T02:29:15;6.55;;;4.10;;
71665;SDS011;59503;53.486;10.196;2023-05-08T02:31:41;6.03;;;4.27;;
71665;SDS011;59503;53.486;10.196;2023-05-08T02:34:08;5.43;;;3.85;;
71665;SDS011;59503;53.486;10.196;2023-05-08T02:36:35;5.15;;;3.85;;
71665;SDS011;59503;53.486;10.196;2023-05-08T02:39:02;9.45;;;4.15;;
71665;SDS011;59503;53.486;10.196;2023-05-08T02:41:29;8.75;;;4.25;;
71665;SDS011;59503;53.486;10.196;2023-05-08T02:43:57;6.37;;;4.23;;
71665;SDS011;59503;53.486;10.196;2023-05-08T02:52:04;5.22;;;4.10;;
71665;SDS011;59503;53.486;10.196;2023-05-08T03:00:22;6.65;;;4.38;;
71665;SDS011;59503;53.486;10.196;2023-05-08T03:02:57;10.07;;;4.70;;
71665;SDS011;59503;53.486;10.196;2023-05-08T03:05:29;6.70;;;4.45;;
71665;SDS011;59503;53.486;10.196;2023-05-08T03:08:02;5.88;;;4.07;;
71665;SDS011;59503;53.486;10.196;2023-05-08T03:10:31;7.50;;;4.20;;
71665;SDS011;59503;53.486;10.196;2023-05-08T03:12:58;6.93;;;5.00;;
71665;SDS011;59503;53.486;10.196;2023-05-08T03:18:02;5.78;;;4.63;;
71665;SDS011;59503;53.486;10.196;2023-05-08T03:20:32;6.93;;;3.97;;
71665;SDS011;59503;53.486;10.196;2023-05-08T03:23:02;6.07;;;4.13;;
71665;SDS011;59503;53.486;10.196;2023-05-08T03:25:30;7.38;;;4.43;;
71665;SDS011;59503;53.486;10.196;2023-05-08T03:27:56;6.38;;;4.47;;
71665;SDS011;59503;53.486;10.196;2023-05-08T03:30:24;6.15;;;4.30;;
71665;SDS011;59503;53.486;10.196;2023-05-08T03:32:51;8.93;;;4.18;;
71665;SDS011;59503;53.486;10.196;2023-05-08T03:35:17;8.37;;;4.40;;
71665;SDS011;59503;53.486;10.196;2023-05-08T03:37:45;6.85;;;4.22;;
71665;SDS011;59503;53.486;10.196;2023-05-08T03:40:11;9.95;;;4.50;;
71665;SDS011;59503;53.486;10.196;2023-05-08T03:42:36;7.40;;;4.27;;
71665;SDS011;59503;53.486;10.196;2023-05-08T03:45:03;7.03;;;4.80;;
71665;SDS011;59503;53.486;10.196;2023-05-08T03:47:29;6.97;;;4.40;;
71665;SDS011;59503;53.486;10.196;2023-05-08T03:49:55;11.73;;;4.50;;
71665;SDS011;59503;53.486;10.196;2023-05-08T03:52:21;6.43;;;4.60;;
71665;SDS011;59503;53.486;10.196;2023-05-08T03:54:47;8.18;;;4.50;;
71665;SDS011;59503;53.486;10.196;2023-05-08T03:57:12;7.17;;;4.90;;
71665;SDS011;59503;53.486;10.196;2023-05-08T03:59:41;9.20;;;5.03;;
71665;SDS011;59503;53.486;10.196;2023-05-08T04:02:16;6.43;;;4.93;;
71665;SDS011;59503;53.486;10.196;2023-05-08T04:04:49;6.55;;;4.38;;
71665;SDS011;59503;53.486;10.196;2023-05-08T04:07:36;8.15;;;4.65;;
71665;SDS011;59503;53.486;10.196;2023-05-08T04:12:38;6.50;;;4.47;;
71665;SDS011;59503;53.486;10.196;2023-05-08T04:15:09;6.90;;;4.53;;
71665;SDS011;59503;53.486;10.196;2023-05-08T04:17:42;6.13;;;4.60;;
71665;SDS011;59503;53.486;10.196;2023-05-08T04:20:21;6.57;;;4.57;;
71665;SDS011;59503;53.486;10.196;2023-05-08T04:22:50;8.00;;;4.90;;
71665;SDS011;59503;53.486;10.196;2023-05-08T04:25:18;6.45;;;4.53;;
71665;SDS011;59503;53.486;10.196;2023-05-08T04:27:44;6.70;;;4.70;;
71665;SDS011;59503;53.486;10.196;2023-05-08T04:30:10;6.65;;;4.85;;
71665;SDS011;59503;53.486;10.196;2023-05-08T04:32:36;6.20;;;4.80;;
71665;SDS011;59503;53.486;10.196;2023-05-08T04:35:02;6.47;;;4.43;;
71665;SDS011;59503;53.486;10.196;2023-05-08T04:37:29;6.72;;;4.57;;
71665;SDS011;59503;53.486;10.196;2023-05-08T04:39:58;7.20;;;4.60;;
71665;SDS011;59503;53.486;10.196;2023-05-08T04:42:24;6.53;;;4.60;;
71665;SDS011;59503;53.486;10.196;2023-05-08T04:44:50;6.73;;;4.60;;
71665;SDS011;59503;53.486;10.196;2023-05-08T04:47:16;7.15;;;4.60;;
71665;SDS011;59503;53.486;10.196;2023-05-08T04:49:42;8.98;;;5.00;;
71665;SDS011;59503;53.486;10.196;2023-05-08T04:52:07;7.30;;;5.07;;
71665;SDS011;59503;53.486;10.196;2023-05-08T04:54:32;9.03;;;4.60;;
71665;SDS011;59503;53.486;10.196;2023-05-08T04:56:58;6.97;;;4.43;;
71665;SDS011;59503;53.486;10.196;2023-05-08T04:59:23;7.63;;;5.20;;
71665;SDS011;59503;53.486;10.196;2023-05-08T05:01:49;7.97;;;5.40;;
71665;SDS011;59503;53.486;10.196;2023-05-08T05:04:15;8.83;;;4.83;;
71665;SDS011;59503;53.486;10.196;2023-05-08T05:06:40;7.13;;;4.90;;
71665;SDS011;59503;53.486;10.196;2023-05-08T05:09:06;8.03;;;5.23;;
71665;SDS011;59503;53.486;10.196;2023-05-08T05:11:31;7.07;;;5.00;;
71665;SDS011;59503;53.486;10.196;2023-05-08T05:13:57;6.83;;;4.43;;
71665;SDS011;59503;53.486;10.196;2023-05-08T05:16:22;6.70;;;5.07;;
71665;SDS011;59503;53.486;10.196;2023-05-08T05:18:47;6.93;;;4.93;;
71665;SDS011;59503;53.486;10.196;2023-05-08T05:21:13;6.57;;;4.57;;
71665;SDS011;59503;53.486;10.196;2023-05-08T05:23:38;6.83;;;4.60;;
71665;SDS011;59503;53.486;10.196;2023-05-08T05:26:03;8.30;;;4.97;;
71665;SDS011;59503;53.486;10.196;2023-05-08T05:28:29;7.35;;;4.72;;
71665;SDS011;59503;53.486;10.196;2023-05-08T05:30:54;5.80;;;4.50;;
71665;SDS011;59503;53.486;10.196;2023-05-08T05:33:20;9.40;;;4.93;;
71665;SDS011;59503;53.486;10.196;2023-05-08T05:35:45;6.23;;;4.17;;
71665;SDS011;59503;53.486;10.196;2023-05-08T05:38:11;8.90;;;4.70;;
71665;SDS011;59503;53.486;10.196;2023-05-08T05:40:36;7.80;;;4.73;;
71665;SDS011;59503;53.486;10.196;2023-05-08T05:43:02;8.50;;;5.13;;
71665;SDS011;59503;53.486;10.196;2023-05-08T05:45:27;9.67;;;5.30;;
71665;SDS011;59503;53.486;10.196;2023-05-08T05:47:52;5.80;;;4.30;;
71665;SDS011;59503;53.486;10.196;2023-05-08T05:50:18;5.97;;;4.60;;
71665;SDS011;59503;53.486;10.196;2023-05-08T05:52:44;8.15;;;4.97;;
71665;SDS011;59503;53.486;10.196;2023-05-08T05:55:09;9.50;;;5.85;;
71665;SDS011;59503;53.486;10.196;2023-05-08T05:57:35;6.90;;;4.73;;
71665;SDS011;59503;53.486;10.196;2023-05-08T06:00:00;7.10;;;4.83;;
71665;SDS011;59503;53.486;10.196;2023-05-08T06:02:26;7.28;;;4.82;;
71665;SDS011;59503;53.486;10.196;2023-05-08T06:04:51;8.07;;;5.10;;
71665;SDS011;59503;53.486;10.196;2023-05-08T06:07:16;6.03;;;4.53;;
71665;SDS011;59503;53.486;10.196;2023-05-08T06:09:42;7.67;;;4.60;;
71665;SDS011;59503;53.486;10.196;2023-05-08T06:12:07;7.30;;;4.80;;
71665;SDS011;59503;53.486;10.196;2023-05-08T06:14:32;6.70;;;4.75;;
71665;SDS011;59503;53.486;10.196;2023-05-08T06:16:58;9.20;;;4.40;;
71665;SDS011;59503;53.486;10.196;2023-05-08T06:19:24;6.30;;;4.82;;
71665;SDS011;59503;53.486;10.196;2023-05-08T06:21:50;6.70;;;4.63;;
71665;SDS011;59503;53.486;10.196;2023-05-08T06:24:15;6.35;;;5.03;;
71665;SDS011;59503;53.486;10.196;2023-05-08T06:26:41;9.17;;;4.47;;
71665;SDS011;59503;53.486;10.196;2023-05-08T06:29:06;6.97;;;4.93;;
71665;SDS011;59503;53.486;10.196;2023-05-08T06:31:31;6.07;;;4.50;;
71665;SDS011;59503;53.486;10.196;2023-05-08T06:33:56;9.93;;;4.97;;
71665;SDS011;59503;53.486;10.196;2023-05-08T06:36:22;6.90;;;4.80;;
71665;SDS011;59503;53.486;10.196;2023-05-08T06:38:47;7.13;;;5.23;;
71665;SDS011;59503;53.486;10.196;2023-05-08T06:41:12;7.27;;;4.80;;
71665;SDS011;59503;53.486;10.196;2023-05-08T06:43:38;6.73;;;4.57;;
71665;SDS011;59503;53.486;10.196;2023-05-08T06:46:03;9.07;;;4.70;;
71665;SDS011;59503;53.486;10.196;2023-05-08T06:48:28;7.80;;;5.20;;
71665;SDS011;59503;53.486;10.196;2023-05-08T06:50:54;6.47;;;4.50;;
71665;SDS011;59503;53.486;10.196;2023-05-08T06:53:19;7.13;;;4.93;;
71665;SDS011;59503;53.486;10.196;2023-05-08T06:55:45;7.93;;;4.47;;
71665;SDS011;59503;53.486;10.196;2023-05-08T06:58:10;6.77;;;5.00;;
71665;SDS011;59503;53.486;10.196;2023-05-08T07:00:36;8.02;;;4.65;;
71665;SDS011;59503;53.486;10.196;2023-05-08T07:03:01;7.23;;;5.40;;
71665;SDS011;59503;53.486;10.196;2023-05-08T07:05:26;7.37;;;4.90;;
71665;SDS011;59503;53.486;10.196;2023-05-08T07:07:52;8.33;;;5.50;;
71665;SDS011;59503;53.486;10.196;2023-05-08T07:10:18;7.47;;;5.30;;
71665;SDS011;59503;53.486;10.196;2023-05-08T07:12:46;6.45;;;4.90;;
71665;SDS011;59503;53.486;10.196;2023-05-08T07:15:12;7.55;;;5.47;;
71665;SDS011;59503;53.486;10.196;2023-05-08T07:17:37;10.53;;;5.77;;
71665;SDS011;59503;53.486;10.196;2023-05-08T07:20:03;7.17;;;5.20;;
71665;SDS011;59503;53.486;10.196;2023-05-08T07:22:29;8.73;;;5.78;;
71665;SDS011;59503;53.486;10.196;2023-05-08T07:24:54;7.60;;;5.50;;
71665;SDS011;59503;53.486;10.196;2023-05-08T07:27:19;7.40;;;5.72;;
71665;SDS011;59503;53.486;10.196;2023-05-08T07:29:45;6.60;;;5.30;;
71665;SDS011;59503;53.486;10.196;2023-05-08T07:32:10;11.20;;;5.40;;
71665;SDS011;59503;53.486;10.196;2023-05-08T07:34:36;6.83;;;5.30;;
71665;SDS011;59503;53.486;10.196;2023-05-08T07:37:01;8.90;;;5.32;;
71665;SDS011;59503;53.486;10.196;2023-05-08T07:39:27;7.83;;;5.97;;
71665;SDS011;59503;53.486;10.196;2023-05-08T07:41:53;6.95;;;5.57;;
71665;SDS011;59503;53.486;10.196;2023-05-08T07:44:18;9.60;;;5.97;;
71665;SDS011;59503;53.486;10.196;2023-05-08T07:46:43;8.57;;;5.53;;
71665;SDS011;59503;53.486;10.196;2023-05-08T07:49:09;7.93;;;5.37;;
71665;SDS011;59503;53.486;10.196;2023-05-08T07:51:34;7.03;;;5.70;;
71665;SDS011;59503;53.486;10.196;2023-05-08T07:54:00;6.80;;;5.20;;
71665;SDS011;59503;53.486;10.196;2023-05-08T07:56:25;8.43;;;5.93;;
71665;SDS011;59503;53.486;10.196;2023-05-08T07:58:52;7.60;;;5.78;;
71665;SDS011;59503;53.486;10.196;2023-05-08T08:01:18;8.57;;;5.70;;
71665;SDS011;59503;53.486;10.196;2023-05-08T08:03:46;8.60;;;6.57;;
71665;SDS011;59503;53.486;10.196;2023-05-08T08:06:12;8.93;;;6.10;;
71665;SDS011;59503;53.486;10.196;2023-05-08T08:08:37;7.70;;;5.53;;
71665;SDS011;59503;53.486;10.196;2023-05-08T08:11:03;7.97;;;5.93;;
71665;SDS011;59503;53.486;10.196;2023-05-08T08:13:29;10.30;;;6.32;;
71665;SDS011;59503;53.486;10.196;2023-05-08T08:15:55;9.60;;;5.97;;
71665;SDS011;59503;53.486;10.196;2023-05-08T08:18:21;8.63;;;6.03;;
71665;SDS011;59503;53.486;10.196;2023-05-08T08:20:46;7.93;;;6.03;;
71665;SDS011;59503;53.486;10.196;2023-05-08T08:23:11;7.63;;;6.00;;
71665;SDS011;59503;53.486;10.196;2023-05-08T08:25:37;11.13;;;6.60;;
71665;SDS011;59503;53.486;10.196;2023-05-08T08:28:02;9.23;;;6.47;;
71665;SDS011;59503;53.486;10.196;2023-05-08T08:30:27;10.80;;;6.10;;
71665;SDS011;59503;53.486;10.196;2023-05-08T08:32:53;8.85;;;6.03;;
71665;SDS011;59503;53.486;10.196;2023-05-08T08:35:18;6.80;;;5.57;;
71665;SDS011;59503;53.486;10.196;2023-05-08T08:37:44;7.03;;;5.70;;
71665;SDS011;59503;53.486;10.196;2023-05-08T08:40:09;12.00;;;6.77;;
71665;SDS011;59503;53.486;10.196;2023-05-08T08:42:34;10.13;;;6.37;;
71665;SDS011;59503;53.486;10.196;2023-05-08T08:45:00;7.70;;;6.00;;
71665;SDS011;59503;53.486;10.196;2023-05-08T08:47:26;8.27;;;6.03;;
71665;SDS011;59503;53.486;10.196;2023-05-08T08:49:53;8.68;;;5.82;;
71665;SDS011;59503;53.486;10.196;2023-05-08T08:52:29;7.07;;;5.88;;
71665;SDS011;59503;53.486;10.196;2023-05-08T08:55:02;8.93;;;5.50;;
71665;SDS011;59503;53.486;10.196;2023-05-08T08:57:32;11.20;;;5.97;;
71665;SDS011;59503;53.486;10.196;2023-05-08T09:00:00;8.77;;;6.15;;
71665;SDS011;59503;53.486;10.196;2023-05-08T09:02:31;8.20;;;5.85;;
71665;SDS011;59503;53.486;10.196;2023-05-08T09:04:56;7.73;;;5.70;;
71665;SDS011;59503;53.486;10.196;2023-05-08T09:07:23;7.40;;;5.57;;
71665;SDS011;59503;53.486;10.196;2023-05-08T09:09:49;7.38;;;5.55;;
71665;SDS011;59503;53.486;10.196;2023-05-08T09:12:14;10.70;;;6.10;;
71665;SDS011;59503;53.486;10.196;2023-05-08T09:14:40;9.93;;;5.90;;
71665;SDS011;59503;53.486;10.196;2023-05-08T09:17:06;7.57;;;5.53;;
71665;SDS011;59503;53.486;10.196;2023-05-08T09:19:31;5.87;;;5.20;;
71665;SDS011;59503;53.486;10.196;2023-05-08T09:22:00;8.90;;;5.55;;
71665;SDS011;59503;53.486;10.196;2023-05-08T09:27:20;5.93;;;5.30;;
71665;SDS011;59503;53.486;10.196;2023-05-08T09:32:41;7.60;;;4.87;;
71665;SDS011;59503;53.486;10.196;2023-05-08T09:35:08;8.05;;;4.70;;
71665;SDS011;59503;53.486;10.196;2023-05-08T09:37:39;5.22;;;4.70;;
71665;SDS011;59503;53.486;10.196;2023-05-08T09:40:14;8.38;;;5.00;;
71665;SDS011;59503;53.486;10.196;2023-05-08T09:42:46;6.85;;;4.35;;
71665;SDS011;59503;53.486;10.196;2023-05-08T09:45:29;8.33;;;4.80;;
71665;SDS011;59503;53.486;10.196;2023-05-08T09:47:55;4.95;;;4.45;;
71665;SDS011;59503;53.486;10.196;2023-05-08T09:50:21;6.70;;;4.75;;
71665;SDS011;59503;53.486;10.196;2023-05-08T09:52:46;8.87;;;4.80;;
71665;SDS011;59503;53.486;10.196;2023-05-08T09:55:13;5.70;;;4.80;;
71665;SDS011;59503;53.486;10.196;2023-05-08T09:57:40;6.50;;;5.13;;
71665;SDS011;59503;53.486;10.196;2023-05-08T10:00:17;5.93;;;4.68;;
71665;SDS011;59503;53.486;10.196;2023-05-08T10:02:52;7.85;;;4.70;;
71665;SDS011;59503;53.486;10.196;2023-05-08T10:07:51;8.05;;;4.50;;
71665;SDS011;59503;53.486;10.196;2023-05-08T10:10:29;8.90;;;4.65;;
71665;SDS011;59503;53.486;10.196;2023-05-08T10:12:55;6.28;;;4.07;;
71665;SDS011;59503;53.486;10.196;2023-05-08T10:15:23;4.97;;;4.03;;
71665;SDS011;59503;53.486;10.196;2023-05-08T10:17:53;7.00;;;4.50;;
71665;SDS011;59503;53.486;10.196;2023-05-08T10:20:32;6.43;;;4.03;;
71665;SDS011;59503;53.486;10.196;2023-05-08T10:22:58;8.73;;;3.67;;
71665;SDS011;59503;53.486;10.196;2023-05-08T10:25:23;8.23;;;3.80;;
71665;SDS011;59503;53.486;10.196;2023-05-08T10:27:58;4.45;;;3.75;;
71665;SDS011;59503;53.486;10.196;2023-05-08T10:30:33;5.88;;;4.03;;
71665;SDS011;59503;53.486;10.196;2023-05-08T10:33:02;5.23;;;3.80;;
71665;SDS011;59503;53.486;10.196;2023-05-08T10:35:34;9.27;;;3.78;;
71665;SDS011;59503;53.486;10.196;2023-05-08T10:38:01;4.57;;;3.50;;
71665;SDS011;59503;53.486;10.196;2023-05-08T10:40:27;4.28;;;3.67;;
71665;SDS011;59503;53.486;10.196;2023-05-08T10:42:53;4.97;;;3.50;;
71665;SDS011;59503;53.486;10.196;2023-05-08T10:45:20;4.78;;;3.70;;
71665;SDS011;59503;53.486;10.196;2023-05-08T10:48:07;8.57;;;3.40;;
71665;SDS011;59503;53.486;10.196;2023-05-08T10:50:57;4.00;;;3.03;;
71665;SDS011;59503;53.486;10.196;2023-05-08T10:53:31;3.50;;;3.03;;
71665;SDS011;59503;53.486;10.196;2023-05-08T10:56:02;2.65;;;2.42;;
71665;SDS011;59503;53.486;10.196;2023-05-08T10:58:29;5.13;;;2.75;;
71665;SDS011;59503;53.486;10.196;2023-05-08T11:03:28;8.57;;;3.00;;
71665;SDS011;59503;53.486;10.196;2023-05-08T11:05:54;4.88;;;2.80;;
71665;SDS011;59503;53.486;10.196;2023-05-08T11:08:21;6.17;;;3.17;;
71665;SDS011;59503;53.486;10.196;2023-05-08T11:13:26;6.18;;;3.53;;
71665;SDS011;59503;53.486;10.196;2023-05-08T11:15:52;3.63;;;3.20;;
71665;SDS011;59503;53.486;10.196;2023-05-08T11:18:18;9.37;;;2.90;;
71665;SDS011;59503;53.486;10.196;2023-05-08T11:21:02;3.37;;;2.57;;
71665;SDS011;59503;53.486;10.196;2023-05-08T11:23:30;2.80;;;2.50;;
71665;SDS011;59503;53.486;10.196;2023-05-08T11:26:02;3.58;;;2.55;;
71665;SDS011;59503;53.486;10.196;2023-05-08T11:28:36;4.53;;;2.33;;
71665;SDS011;59503;53.486;10.196;2023-05-08T11:31:03;5.20;;;2.50;;
71665;SDS011;59503;53.486;10.196;2023-05-08T11:33:29;4.53;;;2.50;;
71665;SDS011;59503;53.486;10.196;2023-05-08T11:36:02;5.10;;;2.22;;
71665;SDS011;59503;53.486;10.196;2023-05-08T11:38:37;3.40;;;2.65;;
71665;SDS011;59503;53.486;10.196;2023-05-08T11:41:10;6.97;;;2.93;;
71665;SDS011;59503;53.486;10.196;2023-05-08T11:43:52;7.20;;;2.75;;
71665;SDS011;59503;53.486;10.196;2023-05-08T11:46:21;5.10;;;2.60;;
71665;SDS011;59503;53.486;10.196;2023-05-08T11:48:46;4.50;;;3.00;;
71665;SDS011;59503;53.486;10.196;2023-05-08T11:51:12;4.30;;;2.58;;
71665;SDS011;59503;53.486;10.196;2023-05-08T11:53:37;6.37;;;2.70;;
71665;SDS011;59503;53.486;10.196;2023-05-08T11:56:04;3.00;;;2.67;;
71665;SDS011;59503;53.486;10.196;2023-05-08T11:58:29;4.23;;;2.57;;
71665;SDS011;59503;53.486;10.196;2023-05-08T12:00:55;3.88;;;2.60;;
71665;SDS011;59503;53.486;10.196;2023-05-08T12:03:22;3.97;;;2.47;;
71665;SDS011;59503;53.486;10.196;2023-05-08T12:05:53;3.75;;;2.95;;
71665;SDS011;59503;53.486;10.196;2023-05-08T12:08:20;4.78;;;3.40;;
71665;SDS011;59503;53.486;10.196;2023-05-08T12:13:14;2.37;;;2.07;;
71665;SDS011;59503;53.486;10.196;2023-05-08T12:15:47;3.15;;;2.40;;
71665;SDS011;59503;53.486;10.196;2023-05-08T12:18:14;4.65;;;2.67;;
71665;SDS011;59503;53.486;10.196;2023-05-08T12:20:40;5.10;;;2.58;;
71665;SDS011;59503;53.486;10.196;2023-05-08T12:23:06;3.03;;;2.27;;
71665;SDS011;59503;53.486;10.196;2023-05-08T12:25:34;2.95;;;2.40;;
71665;SDS011;59503;53.486;10.196;2023-05-08T12:28:01;3.55;;;2.50;;
71665;SDS011;59503;53.486;10.196;2023-05-08T12:30:26;8.03;;;2.73;;
71665;SDS011;59503;53.486;10.196;2023-05-08T12:32:52;3.30;;;2.55;;
71665;SDS011;59503;53.486;10.196;2023-05-08T12:35:18;3.80;;;2.70;;
71665;SDS011;59503;53.486;10.196;2023-05-08T12:37:44;6.47;;;2.80;;
71665;SDS011;59503;53.486;10.196;2023-05-08T12:40:21;2.83;;;2.38;;
71665;SDS011;59503;53.486;10.196;2023-05-08T12:42:50;4.43;;;2.60;;
71665;SDS011;59503;53.486;10.196;2023-05-08T12:45:35;6.10;;;2.70;;
71665;SDS011;59503;53.486;10.196;2023-05-08T12:48:04;6.82;;;2.92;;
71665;SDS011;59503;53.486;10.196;2023-05-08T12:50:37;3.40;;;2.60;;
71665;SDS011;59503;53.486;10.196;2023-05-08T12:53:04;5.18;;;3.00;;
71665;SDS011;59503;53.486;10.196;2023-05-08T12:55:31;4.07;;;3.00;;
71665;SDS011;59503;53.486;10.196;2023-05-08T12:58:02;3.92;;;2.58;;
71665;SDS011;59503;53.486;10.196;2023-05-08T13:00:45;7.18;;;2.50;;
71665;SDS011;59503;53.486;10.196;2023-05-08T13:03:13;2.40;;;2.20;;
71665;SDS011;59503;53.486;10.196;2023-05-08T13:05:46;2.92;;;2.63;;
71665;SDS011;59503;53.486;10.196;2023-05-08T13:08:11;6.60;;;2.67;;
71665;SDS011;59503;53.486;10.196;2023-05-08T13:10:43;4.10;;;2.35;;
71665;SDS011;59503;53.486;10.196;2023-05-08T13:13:10;2.57;;;2.33;;
71665;SDS011;59503;53.486;10.196;2023-05-08T13:15:36;3.50;;;2.60;;
71665;SDS011;59503;53.486;10.196;2023-05-08T13:18:02;4.00;;;2.60;;
71665;SDS011;59503;53.486;10.196;2023-05-08T13:20:27;3.08;;;2.42;;
71665;SDS011;59503;53.486;10.196;2023-05-08T13:22:52;3.43;;;2.50;;
71665;SDS011;59503;53.486;10.196;2023-05-08T13:25:18;7.67;;;2.80;;
71665;SDS011;59503;53.486;10.196;2023-05-08T13:27:43;7.80;;;2.67;;
71665;SDS011;59503;53.486;10.196;2023-05-08T13:30:08;5.03;;;2.63;;
71665;SDS011;59503;53.486;10.196;2023-05-08T13:32:34;3.45;;;2.60;;
71665;SDS011;59503;53.486;10.196;2023-05-08T13:34:59;4.23;;;2.43;;
71665;SDS011;59503;53.486;10.196;2023-05-08T13:37:25;3.03;;;2.30;;
71665;SDS011;59503;53.486;10.196;2023-05-08T13:39:50;3.97;;;2.33;;
71665;SDS011;59503;53.486;10.196;2023-05-08T13:42:17;5.32;;;2.35;;
71665;SDS011;59503;53.486;10.196;2023-05-08T13:44:42;5.90;;;2.37;;
71665;SDS011;59503;53.486;10.196;2023-05-08T13:47:08;5.30;;;2.60;;
71665;SDS011;59503;53.486;10.196;2023-05-08T13:49:34;7.93;;;3.08;;
71665;SDS011;59503;53.486;10.196;2023-05-08T13:51:59;3.50;;;2.47;;
71665;SDS011;59503;53.486;10.196;2023-05-08T13:54:25;3.65;;;2.42;;
71665;SDS011;59503;53.486;10.196;2023-05-08T13:56:50;3.27;;;2.43;;
71665;SDS011;59503;53.486;10.196;2023-05-08T13:59:15;3.20;;;2.50;;
71665;SDS011;59503;53.486;10.196;2023-05-08T14:01:41;4.13;;;2.33;;
71665;SDS011;59503;53.486;10.196;2023-05-08T14:04:06;3.83;;;2.55;;
71665;SDS011;59503;53.486;10.196;2023-05-08T14:06:31;3.13;;;2.80;;
71665;SDS011;59503;53.486;10.196;2023-05-08T14:08:57;7.67;;;2.20;;
71665;SDS011;59503;53.486;10.196;2023-05-08T14:11:22;2.40;;;2.20;;
71665;SDS011;59503;53.486;10.196;2023-05-08T14:13:47;5.87;;;2.30;;
71665;SDS011;59503;53.486;10.196;2023-05-08T14:16:12;2.63;;;2.30;;
71665;SDS011;59503;53.486;10.196;2023-05-08T14:18:40;3.28;;;2.20;;
71665;SDS011;59503;53.486;10.196;2023-05-08T14:21:05;2.80;;;2.43;;
71665;SDS011;59503;53.486;10.196;2023-05-08T14:23:30;3.53;;;2.20;;
71665;SDS011;59503;53.486;10.196;2023-05-08T14:25:55;4.70;;;2.23;;
71665;SDS011;59503;53.486;10.196;2023-05-08T14:28:21;2.40;;;2.20;;
71665;SDS011;59503;53.486;10.196;2023-05-08T14:30:46;6.10;;;2.15;;
71665;SDS011;59503;53.486;10.196;2023-05-08T14:33:11;3.70;;;2.20;;
71665;SDS011;59503;53.486;10.196;2023-05-08T14:35:37;2.80;;;2.30;;
71665;SDS011;59503;53.486;10.196;2023-05-08T14:38:02;2.33;;;2.13;;
71665;SDS011;59503;53.486;10.196;2023-05-08T14:40:28;5.00;;;2.60;;
71665;SDS011;59503;53.486;10.196;2023-05-08T14:42:53;8.13;;;2.30;;
71665;SDS011;59503;53.486;10.196;2023-05-08T14:45:18;3.07;;;2.00;;
71665;SDS011;59503;53.486;10.196;2023-05-08T14:47:44;4.47;;;2.00;;
71665;SDS011;59503;53.486;10.196;2023-05-08T14:50:09;4.13;;;2.33;;
71665;SDS011;59503;53.486;10.196;2023-05-08T14:52:35;2.13;;;1.80;;
71665;SDS011;59503;53.486;10.196;2023-05-08T14:55:00;2.10;;;1.90;;
71665;SDS011;59503;53.486;10.196;2023-05-08T14:57:25;7.27;;;2.03;;
71665;SDS011;59503;53.486;10.196;2023-05-08T14:59:51;3.60;;;2.00;;
71665;SDS011;59503;53.486;10.196;2023-05-08T15:02:16;2.77;;;1.90;;
71665;SDS011;59503;53.486;10.196;2023-05-08T15:04:41;3.33;;;1.87;;
71665;SDS011;59503;53.486;10.196;2023-05-08T15:07:08;2.67;;;2.00;;
71665;SDS011;59503;53.486;10.196;2023-05-08T15:09:33;2.77;;;1.97;;
71665;SDS011;59503;53.486;10.196;2023-05-08T15:11:58;2.50;;;2.05;;
71665;SDS011;59503;53.486;10.196;2023-05-08T15:14:24;2.37;;;1.87;;
71665;SDS011;59503;53.486;10.196;2023-05-08T15:16:50;2.83;;;1.80;;
71665;SDS011;59503;53.486;10.196;2023-05-08T15:19:16;8.07;;;1.80;;
71665;SDS011;59503;53.486;10.196;2023-05-08T15:21:41;2.73;;;1.70;;
71665;SDS011;59503;53.486;10.196;2023-05-08T15:24:07;3.43;;;1.80;;
71665;SDS011;59503;53.486;10.196;2023-05-08T15:26:33;2.30;;;1.75;;